x

South Santa Rosa Is. Ca (46069) Wave Buoy

7:50pm - Wed 16th Aug 2017 All times are PDT. -7 hours from GMT.

  • Sig Wave height 5.2ft
  • Swell Direction
  • Peak Period 16s
  • Average Period 7s
  • Wind
    18mph, 22mph gusts
  • Sea Temp 63°f
  • 空気 Temp 62°f
  • Sea Pressure 1014.2mb
  • South Santa Rosa Is. Ca
  • South Santa Rosa Is. Ca

More Historic Weather Station data

Upgrade to MSW Pro to gain access to the past 30 days of data for over 8000 Wavebouys and Weather Stations around the globe.

Join

Comparision Forecast

View Surf forecast
   
Wed 08/16 7:50pm 5ft 16s 7s 18 22 mph 1014.2mb 63f 62f
6:50pm 5ft 16s 7s 18 22 mph 1014mb 63f 62f
5:50pm 5ft 16s 7s 18 20 mph 1014.4mb 63f 62f
4:50pm 5ft 16s 7s 18 20 mph 1014.6mb 63f 62f
3:50pm 4.5ft 17s 7s 16 18 mph 1014.8mb 63f 62f
2:50pm 5ft 17s 7s 16 18 mph 1015.2mb 62f 61f
1:50pm 5.5ft 17s 7s 16 18 mph 1015.5mb 62f 61f
12:50pm 5.5ft 17s 7s 16 18 mph 1015.8mb 62f 61f
11:50am 5.5ft 17s 7s 16 18 mph 1015.7mb 62f 61f
10:50am 5.5ft 17s 7s 16 20 mph 1015.8mb 62f 61f
9:50am 5.5ft 17s 7s 18 20 mph 1015.6mb 62f 61f
8:50am 5ft 17s 6s 18 22 mph 1015.3mb 62f 61f
7:50am 5ft 17s 6s 18 22 mph 1015.1mb 62f 61f
6:50am 5ft 16s 6s 20 25 mph 1014.6mb 62f 61f
5:50am 5ft 17s 6s 18 20 mph 1014.2mb 62f 61f
4:50am 5ft 17s 6s 18 22 mph 1013.8mb 62f 61f
3:50am 5ft 17s 6s 18 22 mph 1013.8mb 62f 61f
2:50am 5ft 19s 6s 18 22 mph 1013.6mb 62f 61f
12:50am 5ft 19s 6s 18 20 mph 1013.7mb 62f 61f
Tue 08/15 11:50pm 5ft 19s 6s 18 20 mph 1013.7mb 62f 61f
10:50pm 5ft 16s 6s 20 22 mph 1013.6mb 62f 61f
9:50pm 4.5ft 17s 6s 18 22 mph 1013.4mb 62f 61f
8:50pm 5ft 15s 6s 18 20 mph 1012.9mb 62f 61f
7:50pm 5ft 9s 6s 18 20 mph 1012.5mb 62f 61f
6:50pm 4.5ft 9s 6s 18 20 mph 1012.4mb 62f 62f
5:50pm 4.5ft 15s 6s 18 22 mph 1012.5mb 62f 62f
4:50pm 4.5ft 10s 5s 18 20 mph 1012.8mb 62f 62f
3:50pm 4.5ft 10s 5s 16 20 mph 1013.3mb 62f 62f
2:50pm 4.5ft 9s 5s 18 22 mph 1013.5mb 62f 61f
1:50pm 4.5ft 16s 6s 16 20 mph 1013.7mb 62f 61f
12:50pm 4.5ft 9s 6s 16 20 mph 1014mb 62f 61f
11:50am 5ft 8s 6s 18 20 mph 1014.1mb 62f 61f
10:50am 4.5ft 9s 6s 18 22 mph 1013.9mb 62f 61f
8:50am 4.5ft 9s 5s 18 22 mph 1013.4mb 62f 60f
7:50am 4.5ft 9s 5s 20 22 mph 1012.9mb 62f 60f
6:50am 4.5ft 9s 5s 20 22 mph 1012.6mb 62f 60f
5:50am 5ft 9s 5s 20 25 mph 1012.1mb 62f 60f
4:50am 5ft 6s 5s 22 27 mph 1011.9mb 62f 60f
3:50am 5ft 6s 5s 22 27 mph 1011.6mb 62f 60f
2:50am 5ft 5s 5s 22 27 mph 1012mb 62f 60f
1:50am 5ft 6s 5s 22 27 mph 1011.9mb 62f 60f
12:50am 5ft 5s 5s 22 27 mph 1012mb 62f 60f
Mon 08/14 11:50pm 5.5ft 5s 5s 22 27 mph 1012mb 62f 61f
10:50pm 5ft 6s 5s 22 27 mph 1012.1mb 62f 61f
9:50pm 5ft 6s 5s 25 29 mph 1012.1mb 61f 61f
8:50pm 5ft 10s 5s 25 29 mph 1011.6mb 62f 61f
7:50pm 4.5ft 4s 5s 25 29 mph 1011.4mb 62f 60f
6:50pm 4ft 11s 4s 22 27 mph 1011.4mb 61f 60f
5:50pm 3.5ft 10s 5s 20 25 mph 1011.8mb 62f 60f
4:50pm 3.5ft 11s 5s 18 22 mph 1012.2mb 62f 61f
3:50pm 3.5ft 11s 5s 18 20 mph 1012.4mb 62f 60f
2:50pm 4ft 6s 5s 16 18 mph 1013.1mb 62f 61f
1:50pm 4.5ft 6s 5s 13 16 mph 1013.4mb 62f 60f
12:50pm 4.5ft 7s 6s 16 16 mph 1013.8mb 62f 60f
11:50am 4.5ft 7s 6s 13 18 mph 1013.9mb 61f 59f
10:50am 4.5ft 8s 5s 13 16 mph 1014mb 61f 59f
9:50am 4ft 7s 5s 16 20 mph 1013.6mb 61f 59f
8:50am 4ft 6s 5s 18 20 mph 1013.5mb 61f 59f
7:50am 4.5ft 8s 5s 18 20 mph 1012.9mb 61f 59f
6:50am 4.5ft 8s 5s 20 22 mph 1012.7mb 61f 59f
5:50am 4.5ft 7s 5s 20 22 mph 1012.3mb 61f 59f
4:50am 5ft 8s 5s 22 25 mph 1012.2mb 61f 59f
3:50am 5ft 6s 5s 18 22 mph 1012.3mb 61f 59f
2:50am 5.5ft 6s 5s 20 25 mph 1012.3mb 61f 59f
1:50am 6ft 6s 5s 22 27 mph 1012.2mb 61f 59f
12:50am 7ft 7s  -  25 29 mph 1012.2mb 61f 59f
Sun 08/13 11:50pm 6ft 6s 5s 22 27 mph 1012.6mb 61f 59f
10:50pm 5ft 6s 5s 22 25 mph 1012.9mb 61f 59f
9:50pm 5ft 8s 5s 22 27 mph 1012.6mb 61f 59f
8:50pm 4.5ft 14s 5s 20 25 mph 1012.4mb 61f 59f
7:50pm 4.5ft 8s 5s 20 25 mph 1012.3mb 61f 59f
6:50pm 4.5ft 8s 5s 20 25 mph 1012.3mb 61f 60f
5:50pm 4.5ft 8s 5s 18 20 mph 1012.7mb 61f 60f
4:50pm 4ft 13s 5s 18 20 mph 1013.1mb 61f 60f
3:50pm 4.5ft 8s 5s 16 18 mph 1013.4mb 61f 60f
2:50pm 4.5ft 8s 6s 16 20 mph 1013.8mb 61f 60f
1:50pm 4.5ft 8s 5s 18 22 mph 1014.1mb 61f 60f
12:50pm 5ft 8s 6s 18 20 mph 1014.8mb 61f 59f
11:50am 4.5ft 8s 6s 16 20 mph 1015mb 61f 59f
10:50am 5ft 7s 6s 16 18 mph 1015.2mb 61f 58f
9:50am 5ft 8s 6s 16 18 mph 1015mb 61f 58f
8:50am 4.5ft 8s 6s 16 16 mph 1014.5mb 61f 59f
7:50am 4.5ft 7s 6s 16 18 mph 1013.9mb 61f 59f
6:50am 4.5ft 8s 6s 16 18 mph 1013.4mb 61f 58f
5:50am 4.5ft 8s 6s 18 20 mph 1013mb 61f 58f
4:50am 5ft 7s 6s 16 18 mph 1012.7mb 61f 58f
3:50am 6ft 7s 6s 18 20 mph 1012.7mb 61f 58f